createdAt,value
2022-10-23T00:03:31.548Z,17.20
2022-10-23T00:08:34.092Z,17.10
2022-10-23T00:13:37.166Z,17.00
2022-10-23T00:18:39.967Z,17.00
2022-10-23T00:23:42.410Z,17.10
2022-10-23T00:28:46.936Z,16.90
2022-10-23T00:33:49.964Z,17.20
2022-10-23T00:38:52.586Z,17.10
2022-10-23T00:44:05.064Z,16.90
2022-10-23T00:49:09.662Z,16.80
2022-10-23T00:54:29.409Z,16.90
2022-10-23T00:59:33.239Z,16.80
2022-10-23T01:04:36.445Z,16.60
2022-10-23T01:10:01.945Z,16.40
2022-10-23T01:15:14.778Z,16.70
2022-10-23T01:20:32.317Z,16.50
2022-10-23T01:25:59.249Z,16.80
2022-10-23T01:31:06.659Z,16.70
2022-10-23T01:36:16.524Z,17.10
2022-10-23T01:41:59.805Z,16.90
2022-10-23T01:47:08.842Z,16.80
2022-10-23T01:52:23.734Z,16.70
2022-10-23T01:57:31.249Z,16.50
2022-10-23T02:02:37.367Z,16.40
2022-10-23T02:07:40.879Z,16.80
2022-10-23T02:13:21.732Z,16.80
2022-10-23T02:18:48.902Z,16.80
2022-10-23T02:24:10.835Z,16.50
2022-10-23T02:29:21.476Z,16.60
2022-10-23T02:34:24.254Z,16.60
2022-10-23T02:39:28.105Z,16.40
2022-10-23T02:44:49.659Z,16.70
2022-10-23T02:49:58.874Z,16.70
2022-10-23T02:55:04.158Z,16.80
2022-10-23T03:00:19.636Z,16.50
2022-10-23T03:05:31.360Z,16.60
2022-10-23T03:10:33.815Z,16.50
2022-10-23T03:15:36.312Z,16.50
2022-10-23T03:20:38.780Z,16.40
2022-10-23T03:25:41.280Z,16.70
2022-10-23T03:30:43.699Z,16.20
2022-10-23T03:40:55.199Z,15.10
2022-10-23T03:45:57.690Z,14.90
2022-10-23T03:51:01.959Z,14.90
2022-10-23T03:56:05.028Z,16.00
2022-10-23T04:01:09.375Z,16.20
2022-10-23T04:06:12.954Z,16.10
2022-10-23T04:11:15.578Z,16.30
2022-10-23T04:16:21.292Z,16.70
2022-10-23T04:21:23.867Z,16.60
2022-10-23T04:26:26.326Z,16.50
2022-10-23T04:31:28.821Z,16.50
2022-10-23T04:36:31.456Z,16.60
2022-10-23T04:41:43.060Z,16.60
2022-10-23T04:46:45.614Z,16.80
2022-10-23T04:51:48.341Z,16.70
2022-10-23T04:57:09.124Z,16.40
2022-10-23T05:02:29.090Z,16.40
2022-10-23T05:07:31.819Z,16.50
2022-10-23T05:13:00.442Z,16.60
2022-10-23T05:18:12.879Z,16.60
2022-10-23T05:23:18.119Z,16.60
2022-10-23T05:28:30.332Z,16.70
2022-10-23T05:33:36.023Z,16.60
2022-10-23T05:38:38.438Z,16.10
2022-10-23T05:43:48.069Z,16.20
2022-10-23T05:49:13.262Z,16.40
2022-10-23T05:54:27.899Z,16.30
2022-10-23T05:59:50.995Z,16.40
2022-10-23T06:05:15.858Z,16.80
2022-10-23T06:10:18.266Z,16.90
2022-10-23T06:15:26.710Z,16.80
2022-10-23T06:20:37.803Z,16.80
2022-10-23T06:25:54.760Z,16.60
2022-10-23T06:31:09.561Z,16.70
2022-10-23T06:36:12.986Z,16.90
2022-10-23T06:41:20.900Z,16.90
2022-10-23T06:46:32.861Z,16.90
2022-10-23T06:51:53.799Z,16.90
2022-10-23T06:56:58.623Z,16.90
2022-10-23T07:02:11.191Z,16.90
2022-10-23T07:07:14.597Z,16.80
2022-10-23T07:12:23.367Z,16.90
2022-10-23T07:17:36.288Z,17.00
2022-10-23T07:22:38.909Z,16.90
2022-10-23T07:27:48.352Z,16.70
2022-10-23T07:32:51.201Z,16.90
2022-10-23T07:38:08.835Z,17.10
2022-10-23T07:43:18.517Z,17.00
2022-10-23T07:48:21.906Z,17.00
2022-10-23T07:53:34.737Z,17.20
2022-10-23T07:58:46.343Z,17.20
2022-10-23T08:03:52.210Z,17.10
2022-10-23T08:08:54.750Z,17.20
2022-10-23T08:13:58.771Z,17.10
2022-10-23T08:19:06.852Z,17.10
2022-10-23T08:24:15.018Z,17.20
2022-10-23T08:29:20.437Z,17.40
2022-10-23T08:34:24.459Z,17.50
2022-10-23T08:39:28.977Z,17.50
2022-10-23T08:45:06.714Z,17.50
2022-10-23T08:50:38.941Z,17.50
2022-10-23T08:55:51.019Z,17.50
2022-10-23T09:00:53.451Z,17.30
2022-10-23T09:06:09.153Z,17.40
2022-10-23T09:11:24.964Z,17.40
2022-10-23T09:16:30.509Z,17.40
2022-10-23T09:21:33.028Z,17.50
2022-10-23T09:26:35.454Z,17.60
2022-10-23T09:31:52.446Z,17.50
2022-10-23T09:36:58.358Z,17.40
2022-10-23T09:42:05.220Z,17.40
2022-10-23T09:47:07.590Z,17.40
2022-10-23T09:52:13.106Z,17.30
2022-10-23T09:57:27.650Z,17.40
2022-10-23T10:08:15.472Z,17.50
2022-10-23T10:13:32.979Z,17.40
2022-10-23T10:18:58.533Z,17.50
2022-10-23T10:24:26.192Z,17.50
2022-10-23T10:30:13.287Z,17.50
2022-10-23T10:35:48.268Z,17.40
2022-10-23T10:40:58.735Z,17.50
2022-10-23T10:46:05.864Z,17.50
2022-10-23T10:51:30.598Z,17.30
2022-10-23T10:56:38.429Z,17.50
2022-10-23T11:02:07.663Z,17.40
2022-10-23T11:07:15.279Z,17.50
2022-10-23T11:12:24.077Z,17.40
2022-10-23T11:17:35.814Z,17.50
2022-10-23T11:23:01.190Z,17.50
2022-10-23T11:28:06.197Z,17.60
2022-10-23T11:33:19.285Z,17.60
2022-10-23T11:38:29.167Z,17.30
2022-10-23T11:43:50.786Z,17.20
2022-10-23T11:48:55.833Z,17.50
2022-10-23T11:54:24.660Z,17.30
2022-10-23T11:59:33.912Z,17.40
2022-10-23T12:04:47.369Z,17.50
2022-10-23T12:10:02.856Z,17.50
2022-10-23T12:15:18.998Z,16.70
2022-10-23T12:20:30.770Z,16.80
2022-10-23T12:25:44.269Z,16.80
2022-10-23T12:31:05.927Z,16.90
2022-10-23T12:36:16.786Z,17.40
2022-10-23T12:41:28.043Z,17.40
2022-10-23T12:46:46.789Z,17.40
2022-10-23T12:52:16.663Z,17.10
2022-10-23T12:57:25.943Z,16.60
2022-10-23T13:02:32.532Z,16.40
2022-10-23T13:07:39.450Z,16.20
2022-10-23T13:12:47.791Z,16.50
2022-10-23T13:17:56.134Z,16.30
2022-10-23T13:23:12.610Z,16.00
2022-10-23T13:28:28.328Z,15.80
2022-10-23T13:33:43.899Z,16.10
2022-10-23T13:39:02.077Z,16.50
2022-10-23T13:44:04.685Z,16.30
2022-10-23T13:49:07.518Z,16.20
2022-10-23T13:54:15.353Z,15.90
2022-10-23T13:59:18.460Z,16.00
2022-10-23T14:04:20.992Z,16.30
2022-10-23T14:09:23.439Z,16.30
2022-10-23T14:14:25.909Z,16.50
2022-10-23T14:19:28.368Z,16.20
2022-10-23T14:24:30.829Z,16.00
2022-10-23T14:29:33.368Z,16.00
2022-10-23T14:34:35.933Z,16.30
2022-10-23T14:39:38.445Z,15.90
2022-10-23T14:44:40.914Z,15.60
2022-10-23T14:49:45.305Z,15.40
2022-10-23T14:54:47.739Z,15.00
2022-10-23T14:59:50.213Z,14.60
2022-10-23T15:04:52.706Z,14.30
2022-10-23T15:09:55.607Z,14.10
2022-10-23T15:14:58.117Z,14.00
2022-10-23T15:20:00.968Z,14.10
2022-10-23T15:25:03.520Z,14.80
2022-10-23T15:30:06.488Z,14.80
2022-10-23T15:35:09.032Z,14.30
2022-10-23T15:40:11.863Z,14.40
2022-10-23T15:45:14.393Z,13.80
2022-10-23T15:50:17.324Z,13.70
2022-10-23T15:55:20.639Z,13.70
2022-10-23T16:00:23.116Z,13.40
2022-10-23T16:05:25.596Z,13.40
2022-10-23T16:10:28.430Z,14.70
2022-10-23T16:15:30.915Z,15.30
2022-10-23T16:20:33.352Z,15.40
2022-10-23T16:25:36.913Z,16.20
2022-10-23T16:30:43.512Z,15.90
2022-10-23T16:35:45.853Z,15.40
2022-10-23T16:40:54.173Z,15.70
2022-10-23T16:46:21.501Z,15.80
2022-10-23T16:51:26.663Z,15.30
2022-10-23T16:56:29.825Z,15.40
2022-10-23T17:01:33.568Z,15.00
2022-10-23T17:06:36.720Z,14.90
2022-10-23T17:11:40.433Z,16.30
2022-10-23T17:16:46.020Z,16.60
2022-10-23T17:21:48.506Z,15.30
2022-10-23T17:26:51.397Z,15.70
2022-10-23T17:31:53.793Z,16.30
2022-10-23T17:36:56.700Z,16.60
2022-10-23T17:41:59.533Z,16.20
2022-10-23T17:47:02.091Z,16.00
2022-10-23T17:52:04.685Z,16.60
2022-10-23T17:57:07.132Z,16.40
2022-10-23T18:02:13.203Z,15.20
2022-10-23T18:07:15.801Z,15.30
2022-10-23T18:12:18.276Z,15.30
2022-10-23T18:17:20.703Z,15.00
2022-10-23T18:22:23.121Z,15.70
2022-10-23T18:27:25.605Z,16.60
2022-10-23T18:32:29.873Z,16.40
2022-10-23T18:42:40.026Z,16.70
2022-10-23T18:47:42.914Z,16.30
2022-10-23T18:52:45.826Z,16.20
2022-10-23T18:57:48.216Z,13.40
2022-10-23T19:02:52.383Z,12.50
2022-10-23T19:07:55.464Z,11.90
2022-10-23T19:12:57.823Z,11.70
2022-10-23T19:18:00.691Z,11.60
2022-10-23T19:28:09.321Z,11.50
2022-10-23T19:33:11.741Z,11.50
2022-10-23T19:38:14.189Z,11.80
2022-10-23T19:43:16.555Z,11.40
2022-10-23T19:48:19.113Z,11.30
2022-10-23T19:53:21.730Z,11.30
2022-10-23T19:58:24.189Z,11.30
2022-10-23T20:03:26.619Z,11.40
2022-10-23T20:08:32.641Z,11.30
2022-10-23T20:13:37.512Z,11.20
2022-10-23T20:18:39.978Z,11.10
2022-10-23T20:23:42.627Z,11.10
2022-10-23T20:28:47.138Z,11.10
2022-10-23T20:33:49.722Z,11.00
2022-10-23T20:38:52.710Z,11.10
2022-10-23T20:43:56.269Z,11.10
2022-10-23T20:48:58.787Z,11.10
2022-10-23T20:54:01.238Z,11.20
2022-10-23T20:59:11.148Z,11.20
2022-10-23T21:04:14.360Z,11.20
2022-10-23T21:09:16.847Z,11.20
2022-10-23T21:14:19.378Z,11.20
2022-10-23T21:19:21.805Z,11.10
2022-10-23T21:24:24.682Z,11.10
2022-10-23T21:29:27.119Z,11.10
2022-10-23T21:34:30.297Z,11.10
2022-10-23T21:39:33.061Z,11.00
2022-10-23T21:49:38.497Z,10.80
2022-10-23T21:54:40.954Z,10.70
2022-10-23T21:59:43.911Z,10.50
2022-10-23T22:04:46.338Z,10.50
2022-10-23T22:09:48.823Z,10.40
2022-10-23T22:14:51.284Z,10.40
2022-10-23T22:19:53.860Z,10.40
2022-10-23T22:24:56.296Z,10.40
2022-10-23T22:29:58.802Z,10.30
2022-10-23T22:35:01.181Z,10.40
2022-10-23T22:40:03.879Z,10.50
2022-10-23T22:45:06.974Z,10.40
2022-10-23T22:50:09.619Z,10.40
2022-10-23T22:55:12.059Z,10.60
2022-10-23T23:00:14.972Z,10.50
2022-10-23T23:05:17.482Z,10.50
2022-10-23T23:10:19.904Z,10.50
2022-10-23T23:15:22.299Z,10.50
2022-10-23T23:20:24.740Z,10.40
2022-10-23T23:25:27.181Z,10.50
2022-10-23T23:30:29.669Z,10.60
2022-10-23T23:35:32.125Z,10.60
2022-10-23T23:40:34.934Z,10.40
2022-10-23T23:45:37.374Z,10.20
2022-10-23T23:50:39.853Z,10.10
